Eyemouth, United Kingdom
Current Conditions -  °F | °C
As of 3:50 PM on Friday 24 Oct 2014 (Local Time) from EGQM Reporting Station
Broken Clouds Broken Clouds  
Wind Chill: 54°   Ceiling: 5000
Heat Index: 54°   Visibility: 6mi
Dew Point: 45°   Wind: 13mph
Humidity: 72%   Direction: 210°SSW
Pressure: 29.77"   Gusts: NA
Location:  55.87°N, 2.09°W
Report Text: EGQM 241450Z AUTO 21011KT 9999 BKN050/// 12/07 Q1008 RERA
Loading
Personal Weather Stations






























Interactive Weather Map
Tropical Storm Tracking
New forecast layout! Learn more

10-Day Weather Forecast

Advertisements
Track Severe Weather on mobile